createdAt,value
2018-05-06T00:00:16.685Z,18.54
2018-05-06T00:01:16.710Z,18.55
2018-05-06T00:02:16.796Z,18.54
2018-05-06T00:03:16.776Z,18.54
2018-05-06T00:04:16.688Z,18.54
2018-05-06T00:05:16.833Z,18.53
2018-05-06T00:06:16.738Z,18.53
2018-05-06T00:07:16.828Z,18.55
2018-05-06T00:08:16.787Z,18.53
2018-05-06T00:09:16.693Z,18.52
2018-05-06T00:10:16.650Z,18.53
2018-05-06T00:11:16.827Z,18.54
2018-05-06T00:12:16.812Z,18.52
2018-05-06T00:13:16.973Z,18.55
2018-05-06T00:14:16.845Z,18.55
2018-05-06T00:15:17.463Z,18.53
2018-05-06T00:16:16.662Z,18.55
2018-05-06T00:17:16.662Z,18.53
2018-05-06T00:18:16.819Z,18.51
2018-05-06T00:19:16.722Z,18.57
2018-05-06T00:20:16.690Z,18.53
2018-05-06T00:21:16.940Z,18.53
2018-05-06T00:22:16.900Z,18.54
2018-05-06T00:23:16.753Z,18.53
2018-05-06T00:24:16.720Z,18.55
2018-05-06T00:25:16.683Z,18.54
2018-05-06T00:26:16.652Z,18.54
2018-05-06T00:27:16.650Z,18.51
2018-05-06T00:28:16.606Z,18.54
2018-05-06T00:29:16.848Z,18.52
2018-05-06T00:30:16.769Z,18.51
2018-05-06T00:31:16.882Z,18.53
2018-05-06T00:32:16.731Z,18.51
2018-05-06T00:33:16.694Z,18.52
2018-05-06T00:34:16.615Z,18.54
2018-05-06T00:35:16.784Z,18.51
2018-05-06T00:36:16.764Z,18.51
2018-05-06T00:37:16.643Z,18.52
2018-05-06T00:38:16.868Z,18.52
2018-05-06T00:39:16.686Z,18.5
2018-05-06T00:40:16.728Z,18.53
2018-05-06T00:41:16.837Z,18.51
2018-05-06T00:42:16.733Z,18.5
2018-05-06T00:43:16.713Z,18.52
2018-05-06T00:44:16.730Z,18.51
2018-05-06T00:45:16.736Z,18.49
2018-05-06T00:46:16.901Z,18.52
2018-05-06T00:47:16.892Z,18.51
2018-05-06T00:48:16.859Z,18.51
2018-05-06T00:49:16.811Z,18.53
2018-05-06T00:50:16.899Z,18.52
2018-05-06T00:51:16.835Z,18.49
2018-05-06T00:52:16.645Z,18.52
2018-05-06T00:53:16.857Z,18.5
2018-05-06T00:54:16.744Z,18.5
2018-05-06T00:55:16.769Z,18.53
2018-05-06T00:56:16.679Z,18.52
2018-05-06T00:57:16.763Z,18.49
2018-05-06T00:58:16.716Z,18.51
2018-05-06T00:59:16.821Z,18.51
2018-05-06T01:00:16.800Z,18.5
2018-05-06T01:01:16.834Z,18.52
2018-05-06T01:02:16.821Z,18.51
2018-05-06T01:03:16.850Z,18.5
2018-05-06T01:04:16.592Z,18.53
2018-05-06T01:05:16.902Z,18.49
2018-05-06T01:06:16.773Z,18.48
2018-05-06T01:07:16.825Z,18.52
2018-05-06T01:08:16.606Z,18.49
2018-05-06T01:09:16.714Z,18.5
2018-05-06T01:10:16.799Z,18.51
2018-05-06T01:11:16.824Z,18.49
2018-05-06T01:12:16.645Z,18.49
2018-05-06T01:13:16.866Z,18.52
2018-05-06T01:14:16.686Z,18.51
2018-05-06T01:15:16.937Z,18.49
2018-05-06T01:16:16.737Z,18.51
2018-05-06T01:17:16.846Z,18.51
2018-05-06T01:18:16.731Z,18.49
2018-05-06T01:19:16.858Z,18.49
2018-05-06T01:20:16.713Z,18.49
2018-05-06T01:21:16.853Z,18.47
2018-05-06T01:22:16.637Z,18.49
2018-05-06T01:23:16.701Z,18.49
2018-05-06T01:24:16.992Z,18.46
2018-05-06T01:25:16.841Z,18.5
2018-05-06T01:26:16.806Z,18.49
2018-05-06T01:27:16.836Z,18.47
2018-05-06T01:28:16.756Z,18.52
2018-05-06T01:29:16.690Z,18.49
2018-05-06T01:30:16.656Z,18.47
2018-05-06T01:31:16.833Z,18.49
2018-05-06T01:32:16.719Z,18.47
2018-05-06T01:33:16.805Z,18.48
2018-05-06T01:34:16.640Z,18.5
2018-05-06T01:35:16.650Z,18.49
2018-05-06T01:36:16.832Z,18.48
2018-05-06T01:37:16.710Z,18.5
2018-05-06T01:38:16.655Z,18.5
2018-05-06T01:39:16.829Z,18.47
2018-05-06T01:40:16.591Z,18.5
2018-05-06T01:41:16.614Z,18.48
2018-05-06T01:42:16.564Z,18.48
2018-05-06T01:43:16.748Z,18.51
2018-05-06T01:44:16.776Z,18.48
2018-05-06T01:45:16.730Z,18.49
2018-05-06T01:46:16.637Z,18.51
2018-05-06T01:47:16.606Z,18.48
2018-05-06T01:48:16.596Z,18.46
2018-05-06T01:49:16.699Z,18.51
2018-05-06T01:50:16.880Z,18.47
2018-05-06T01:51:16.670Z,18.48
2018-05-06T01:52:16.694Z,18.49
2018-05-06T01:53:16.799Z,18.48
2018-05-06T01:54:16.865Z,18.47
2018-05-06T01:55:16.743Z,18.5
2018-05-06T01:56:16.768Z,18.49
2018-05-06T01:57:16.765Z,18.46
2018-05-06T01:58:16.613Z,18.51
2018-05-06T01:59:16.783Z,18.46
2018-05-06T02:00:16.774Z,18.47
2018-05-06T02:01:16.572Z,18.5
2018-05-06T02:02:16.760Z,18.46
2018-05-06T02:03:17.017Z,18.44
2018-05-06T02:04:16.593Z,18.5
2018-05-06T02:05:16.765Z,18.49
2018-05-06T02:06:16.770Z,18.47
2018-05-06T02:07:16.743Z,18.47
2018-05-06T02:08:16.634Z,18.47
2018-05-06T02:09:16.816Z,18.48
2018-05-06T02:10:16.716Z,18.49
2018-05-06T02:11:16.856Z,18.47
2018-05-06T02:12:16.729Z,18.44
2018-05-06T02:13:16.627Z,18.49
2018-05-06T02:14:16.726Z,18.47
2018-05-06T02:15:16.691Z,18.46
2018-05-06T02:16:16.594Z,18.49
2018-05-06T02:17:16.707Z,18.47
2018-05-06T02:18:16.881Z,18.44
2018-05-06T02:19:16.662Z,18.47
2018-05-06T02:20:16.745Z,18.46
2018-05-06T02:21:16.766Z,18.44
2018-05-06T02:22:16.998Z,18.49
2018-05-06T02:23:16.632Z,18.46
2018-05-06T02:24:16.832Z,18.43
2018-05-06T02:25:16.719Z,18.49
2018-05-06T02:26:16.921Z,18.48
2018-05-06T02:27:16.779Z,18.44
2018-05-06T02:28:16.769Z,18.49
2018-05-06T02:29:16.734Z,18.46
2018-05-06T02:30:17.341Z,18.44
2018-05-06T02:31:16.786Z,18.46
2018-05-06T02:32:16.876Z,18.46
2018-05-06T02:33:16.645Z,18.46
2018-05-06T02:34:16.695Z,18.46
2018-05-06T02:35:16.864Z,18.47
2018-05-06T02:36:16.749Z,18.47
2018-05-06T02:37:16.758Z,18.46
2018-05-06T02:38:16.750Z,18.43
2018-05-06T02:39:16.593Z,18.44
2018-05-06T02:40:16.766Z,18.46
2018-05-06T02:41:16.545Z,18.44
2018-05-06T02:42:16.868Z,18.43
2018-05-06T02:43:16.744Z,18.44
2018-05-06T02:44:16.777Z,18.44
2018-05-06T02:45:16.625Z,18.43
2018-05-06T02:46:16.638Z,18.48
2018-05-06T02:47:16.742Z,18.42
2018-05-06T02:48:16.849Z,18.44
2018-05-06T02:49:16.738Z,18.46
2018-05-06T02:50:16.699Z,18.44
2018-05-06T02:51:16.636Z,18.42
2018-05-06T02:52:16.638Z,18.48
2018-05-06T02:53:16.711Z,18.44
2018-05-06T02:54:16.749Z,18.42
2018-05-06T02:55:16.668Z,18.46
2018-05-06T02:56:16.571Z,18.43
2018-05-06T02:57:16.726Z,18.4
2018-05-06T02:58:16.653Z,18.44
2018-05-06T02:59:16.555Z,18.43
2018-05-06T03:00:16.924Z,18.43
2018-05-06T03:01:16.804Z,18.46
2018-05-06T03:02:16.885Z,18.43
2018-05-06T03:03:16.743Z,18.41
2018-05-06T03:04:16.784Z,18.44
2018-05-06T03:05:16.737Z,18.42
2018-05-06T03:06:16.811Z,18.42
2018-05-06T03:07:16.682Z,18.44
2018-05-06T03:08:16.590Z,18.43
2018-05-06T03:09:16.830Z,18.43
2018-05-06T03:10:16.623Z,18.46
2018-05-06T03:11:16.776Z,18.44
2018-05-06T03:12:16.599Z,18.4
2018-05-06T03:13:16.793Z,18.47
2018-05-06T03:14:16.701Z,18.43
2018-05-06T03:15:16.868Z,18.42
2018-05-06T03:16:16.800Z,18.44
2018-05-06T03:17:16.648Z,18.41
2018-05-06T03:18:16.785Z,18.43
2018-05-06T03:19:16.770Z,18.44
2018-05-06T03:20:16.678Z,18.44
2018-05-06T03:21:16.655Z,18.41
2018-05-06T03:22:16.736Z,18.44
2018-05-06T03:23:16.698Z,18.42
2018-05-06T03:24:16.786Z,18.41
2018-05-06T03:25:16.769Z,18.43
2018-05-06T03:26:16.637Z,18.42
2018-05-06T03:27:16.784Z,18.41
2018-05-06T03:28:16.524Z,18.46
2018-05-06T03:29:16.713Z,18.43
2018-05-06T03:30:16.684Z,18.41
2018-05-06T03:31:16.773Z,18.44
2018-05-06T03:32:16.769Z,18.42
2018-05-06T03:33:16.747Z,18.42
2018-05-06T03:34:16.670Z,18.42
2018-05-06T03:35:16.812Z,18.42
2018-05-06T03:36:16.554Z,18.41
2018-05-06T03:37:16.653Z,18.44
2018-05-06T03:38:16.744Z,18.42
2018-05-06T03:39:16.637Z,18.41
2018-05-06T03:40:16.610Z,18.44
2018-05-06T03:41:16.598Z,18.43
2018-05-06T03:42:16.885Z,18.39
2018-05-06T03:43:16.716Z,18.41
2018-05-06T03:44:16.672Z,18.39
2018-05-06T03:45:16.691Z,18.37
2018-05-06T03:46:16.623Z,18.41
2018-05-06T03:47:16.709Z,18.42
2018-05-06T03:48:16.694Z,18.41
2018-05-06T03:49:16.808Z,18.43
2018-05-06T03:50:16.765Z,18.4
2018-05-06T03:51:16.598Z,18.39
2018-05-06T03:52:16.856Z,18.44
2018-05-06T03:53:16.695Z,18.4
2018-05-06T03:54:16.665Z,18.42
2018-05-06T03:55:16.782Z,18.43
2018-05-06T03:56:16.817Z,18.41
2018-05-06T03:57:16.778Z,18.4
2018-05-06T03:58:16.772Z,18.42
2018-05-06T03:59:16.643Z,18.41
2018-05-06T04:00:16.758Z,18.41
2018-05-06T04:01:16.683Z,18.42
2018-05-06T04:02:16.766Z,18.41
2018-05-06T04:03:16.795Z,18.4
2018-05-06T04:04:16.543Z,18.43
2018-05-06T04:05:16.763Z,18.4
2018-05-06T04:06:16.759Z,18.4
2018-05-06T04:07:16.573Z,18.41
2018-05-06T04:08:16.776Z,18.39
2018-05-06T04:09:16.585Z,18.4
2018-05-06T04:10:16.807Z,18.41
2018-05-06T04:11:16.711Z,18.38
2018-05-06T04:12:16.596Z,18.39
2018-05-06T04:13:16.796Z,18.44
2018-05-06T04:14:16.691Z,18.39
2018-05-06T04:15:16.620Z,18.41
2018-05-06T04:16:16.846Z,18.43
2018-05-06T04:17:16.644Z,18.4
2018-05-06T04:18:16.698Z,18.37
2018-05-06T04:19:16.680Z,18.41
2018-05-06T04:20:16.661Z,18.4
2018-05-06T04:21:17.005Z,18.38
2018-05-06T04:22:16.556Z,18.43
2018-05-06T04:23:16.712Z,18.39
2018-05-06T04:24:16.770Z,18.37
2018-05-06T04:25:16.783Z,18.39
2018-05-06T04:26:16.852Z,18.39
2018-05-06T04:27:16.804Z,18.37
2018-05-06T04:28:16.577Z,18.41
2018-05-06T04:29:16.665Z,18.4
2018-05-06T04:30:16.575Z,18.39
2018-05-06T04:31:16.584Z,18.4
2018-05-06T04:32:16.797Z,18.38
2018-05-06T04:33:16.801Z,18.38
2018-05-06T04:34:16.807Z,18.41
2018-05-06T04:35:16.772Z,18.38
2018-05-06T04:36:16.787Z,18.37
2018-05-06T04:37:16.811Z,18.41
2018-05-06T04:38:16.774Z,18.37
2018-05-06T04:39:16.782Z,18.37
2018-05-06T04:40:16.496Z,18.4
2018-05-06T04:41:16.731Z,18.4
2018-05-06T04:42:16.786Z,18.37
2018-05-06T04:43:16.749Z,18.39
2018-05-06T04:44:17.049Z,18.39
2018-05-06T04:45:16.758Z,18.37
2018-05-06T04:46:16.726Z,18.41
2018-05-06T04:47:16.822Z,18.4
2018-05-06T04:48:16.580Z,18.38
2018-05-06T04:49:16.679Z,18.41
2018-05-06T04:50:16.572Z,18.38
2018-05-06T04:51:16.715Z,18.36
2018-05-06T04:52:16.525Z,18.4
2018-05-06T04:53:16.586Z,18.4
2018-05-06T04:54:16.690Z,18.38
2018-05-06T04:55:16.569Z,18.39
2018-05-06T04:56:16.825Z,18.38
2018-05-06T04:57:16.727Z,18.37
2018-05-06T04:58:16.507Z,18.4
2018-05-06T04:59:16.551Z,18.39
2018-05-06T05:00:16.599Z,18.37
2018-05-06T05:01:16.652Z,18.4
2018-05-06T05:02:16.718Z,18.37
2018-05-06T05:03:16.736Z,18.37
2018-05-06T05:04:16.793Z,18.4
2018-05-06T05:05:16.644Z,18.39
2018-05-06T05:06:16.551Z,18.4
2018-05-06T05:07:16.671Z,18.4
2018-05-06T05:08:16.732Z,18.4
2018-05-06T05:09:16.648Z,18.37
2018-05-06T05:10:16.516Z,18.4
2018-05-06T05:11:16.610Z,18.38
2018-05-06T05:12:16.704Z,18.37
2018-05-06T05:13:16.652Z,18.41
2018-05-06T05:14:16.542Z,18.37
2018-05-06T05:15:16.740Z,18.36
2018-05-06T05:16:16.518Z,18.39
2018-05-06T05:17:16.534Z,18.38
2018-05-06T05:18:16.589Z,18.38
2018-05-06T05:19:16.749Z,18.4
2018-05-06T05:20:16.762Z,18.38
2018-05-06T05:21:16.605Z,18.37
2018-05-06T05:22:16.684Z,18.39
2018-05-06T05:23:16.753Z,18.37
2018-05-06T05:24:16.631Z,18.37
2018-05-06T05:25:16.819Z,18.41
2018-05-06T05:26:16.547Z,18.4
2018-05-06T05:27:16.786Z,18.37
2018-05-06T05:28:16.728Z,18.4
2018-05-06T05:29:16.662Z,18.39
2018-05-06T05:30:16.619Z,18.36
2018-05-06T05:31:16.759Z,18.4
2018-05-06T05:32:16.671Z,18.36
2018-05-06T05:33:16.701Z,18.37
2018-05-06T05:34:16.558Z,18.39
2018-05-06T05:35:16.636Z,18.4
2018-05-06T05:36:16.793Z,18.38
2018-05-06T05:37:16.833Z,18.4
2018-05-06T05:38:16.723Z,18.38
2018-05-06T05:39:16.775Z,18.38
2018-05-06T05:40:16.732Z,18.42
2018-05-06T05:41:16.752Z,18.38
2018-05-06T05:42:16.765Z,18.36
2018-05-06T05:43:16.555Z,18.38
2018-05-06T05:44:16.741Z,18.39
2018-05-06T05:45:16.671Z,18.36
2018-05-06T05:46:16.759Z,18.39
2018-05-06T05:47:16.740Z,18.39
2018-05-06T05:48:16.584Z,18.37
2018-05-06T05:49:16.575Z,18.4
2018-05-06T05:50:16.748Z,18.39
2018-05-06T05:51:16.688Z,18.38
2018-05-06T05:52:16.552Z,18.41
2018-05-06T05:53:16.747Z,18.37
2018-05-06T05:54:16.625Z,18.38
2018-05-06T05:55:16.723Z,18.4
2018-05-06T05:56:16.660Z,18.39
2018-05-06T05:57:16.694Z,18.37
2018-05-06T05:58:16.588Z,18.4
2018-05-06T05:59:16.575Z,18.38
2018-05-06T06:00:16.606Z,18.37
2018-05-06T06:01:16.573Z,18.41
2018-05-06T06:02:16.587Z,18.39
2018-05-06T06:03:16.569Z,18.37
2018-05-06T06:04:16.669Z,18.4
2018-05-06T06:05:16.698Z,18.39
2018-05-06T06:06:16.553Z,18.38
2018-05-06T06:07:16.777Z,18.42
2018-05-06T06:08:16.656Z,18.39
2018-05-06T06:09:16.540Z,18.37
2018-05-06T06:10:21.571Z,18.41
2018-05-06T06:11:16.568Z,18.37
2018-05-06T06:12:16.775Z,18.38
2018-05-06T06:13:16.693Z,18.41
2018-05-06T06:14:16.693Z,18.38
2018-05-06T06:15:16.601Z,18.39
2018-05-06T06:16:16.616Z,18.42
2018-05-06T06:17:16.502Z,18.4
2018-05-06T06:18:16.998Z,18.37
2018-05-06T06:19:16.736Z,18.43
2018-05-06T06:20:16.667Z,18.39
2018-05-06T06:21:16.693Z,18.39
2018-05-06T06:22:16.527Z,18.41
2018-05-06T06:23:16.525Z,18.41
2018-05-06T06:24:16.482Z,18.38
2018-05-06T06:25:16.580Z,18.41
2018-05-06T06:26:16.731Z,18.39
2018-05-06T06:27:16.528Z,18.39
2018-05-06T06:28:16.691Z,18.42
2018-05-06T06:29:16.798Z,18.4
2018-05-06T06:30:16.533Z,18.38
2018-05-06T06:31:16.610Z,18.41
2018-05-06T06:32:16.769Z,18.39
2018-05-06T06:33:16.559Z,18.4
2018-05-06T06:34:16.588Z,18.41
2018-05-06T06:35:16.726Z,18.4
2018-05-06T06:36:16.602Z,18.38
2018-05-06T06:37:16.868Z,18.41
2018-05-06T06:38:17.146Z,18.39
2018-05-06T06:39:16.537Z,18.4
2018-05-06T06:40:16.692Z,18.41
2018-05-06T06:41:16.515Z,18.39
2018-05-06T06:42:16.712Z,18.39
2018-05-06T06:43:16.771Z,18.41
2018-05-06T06:44:16.773Z,18.4
2018-05-06T06:45:16.549Z,18.39
2018-05-06T06:46:16.753Z,18.41
2018-05-06T06:47:16.646Z,18.38
2018-05-06T06:48:16.621Z,18.38
2018-05-06T06:49:16.542Z,18.41
2018-05-06T06:50:16.612Z,18.39
2018-05-06T06:51:16.731Z,18.38
2018-05-06T06:52:16.658Z,18.4
2018-05-06T06:53:16.526Z,18.4
2018-05-06T06:54:16.603Z,18.37
2018-05-06T06:55:16.566Z,18.42
2018-05-06T06:56:16.776Z,18.41
2018-05-06T06:57:16.589Z,18.39
2018-05-06T06:58:16.735Z,18.4
2018-05-06T06:59:16.567Z,18.39
2018-05-06T07:00:16.618Z,18.38
2018-05-06T07:01:16.578Z,18.43
2018-05-06T07:02:16.784Z,18.41
2018-05-06T07:03:16.579Z,18.4
2018-05-06T07:04:16.454Z,18.42
2018-05-06T07:05:16.665Z,18.4
2018-05-06T07:06:16.563Z,18.4
2018-05-06T07:07:16.677Z,18.43
2018-05-06T07:08:16.518Z,18.39
2018-05-06T07:09:16.496Z,18.38
2018-05-06T07:10:16.689Z,18.41
2018-05-06T07:11:16.941Z,18.39
2018-05-06T07:12:16.642Z,18.37
2018-05-06T07:13:16.568Z,18.41
2018-05-06T07:14:16.512Z,18.41
2018-05-06T07:15:16.772Z,18.38
2018-05-06T07:16:16.600Z,18.42
2018-05-06T07:17:16.504Z,18.38
2018-05-06T07:18:16.688Z,18.37
2018-05-06T07:19:16.862Z,18.41
2018-05-06T07:20:16.498Z,18.39
2018-05-06T07:21:16.699Z,18.38
2018-05-06T07:22:16.540Z,18.39
2018-05-06T07:23:16.599Z,18.38
2018-05-06T07:24:16.756Z,18.38
2018-05-06T07:25:16.597Z,18.43
2018-05-06T07:26:16.555Z,18.4
2018-05-06T07:27:16.701Z,18.4
2018-05-06T07:28:16.751Z,18.42
2018-05-06T07:29:16.602Z,18.4
2018-05-06T07:30:16.626Z,18.37
2018-05-06T07:31:16.716Z,18.41
2018-05-06T07:32:16.597Z,18.39
2018-05-06T07:33:16.688Z,18.38
2018-05-06T07:34:16.852Z,18.4
2018-05-06T07:35:16.495Z,18.4
2018-05-06T07:36:16.689Z,18.37
2018-05-06T07:37:16.874Z,18.41
2018-05-06T07:38:16.717Z,18.39
2018-05-06T07:39:16.742Z,18.37
2018-05-06T07:40:16.699Z,18.41
2018-05-06T07:41:16.725Z,18.41
2018-05-06T07:42:16.594Z,18.38
2018-05-06T07:43:16.532Z,18.41
2018-05-06T07:44:16.567Z,18.41
2018-05-06T07:45:16.761Z,18.38
2018-05-06T07:46:16.746Z,18.42
2018-05-06T07:47:16.722Z,18.39
2018-05-06T07:48:16.534Z,18.39
2018-05-06T07:49:16.748Z,18.41
2018-05-06T07:50:16.717Z,18.38
2018-05-06T07:51:16.723Z,18.4
2018-05-06T07:52:16.728Z,18.41
2018-05-06T07:53:16.573Z,18.38
2018-05-06T07:54:16.636Z,18.39
2018-05-06T07:55:16.521Z,18.41
2018-05-06T07:56:16.559Z,18.4
2018-05-06T07:57:16.711Z,18.38
2018-05-06T07:58:16.472Z,18.41
2018-05-06T07:59:16.459Z,18.4
2018-05-06T08:00:16.609Z,18.39
2018-05-06T08:01:16.531Z,18.41
2018-05-06T08:02:16.691Z,18.39
2018-05-06T08:03:16.555Z,18.39
2018-05-06T08:04:16.498Z,18.4
2018-05-06T08:05:16.702Z,18.4
2018-05-06T08:06:16.733Z,18.39
2018-05-06T08:07:16.505Z,18.41
2018-05-06T08:08:16.631Z,18.39
2018-05-06T08:09:16.718Z,18.36
2018-05-06T08:10:16.592Z,18.41
2018-05-06T08:11:16.487Z,18.4
2018-05-06T08:12:16.670Z,18.38
2018-05-06T08:13:16.468Z,18.41
2018-05-06T08:14:16.492Z,18.41
2018-05-06T08:15:16.649Z,18.41
2018-05-06T08:16:16.990Z,18.43
2018-05-06T08:17:16.683Z,18.42
2018-05-06T08:18:16.779Z,18.44
2018-05-06T08:19:16.650Z,18.5
2018-05-06T08:20:16.526Z,18.49
2018-05-06T08:21:16.466Z,18.49
2018-05-06T08:22:16.703Z,18.53
2018-05-06T08:23:16.759Z,18.54
2018-05-06T08:24:16.720Z,18.53
2018-05-06T08:25:16.718Z,18.56
2018-05-06T08:26:16.610Z,18.56
2018-05-06T08:27:16.730Z,18.61
2018-05-06T08:28:16.565Z,18.63
2018-05-06T08:29:16.452Z,18.62
2018-05-06T08:30:16.646Z,18.64
2018-05-06T08:31:16.650Z,18.63
2018-05-06T08:32:16.834Z,18.64
2018-05-06T08:33:16.536Z,18.66
2018-05-06T08:34:16.527Z,18.65
2018-05-06T08:35:16.717Z,18.67
2018-05-06T08:36:16.579Z,18.69
2018-05-06T08:37:16.631Z,18.71
2018-05-06T08:38:16.535Z,18.68
2018-05-06T08:39:16.684Z,18.69
2018-05-06T08:40:16.760Z,18.72
2018-05-06T08:41:16.702Z,18.71
2018-05-06T08:42:16.575Z,18.71
2018-05-06T08:43:16.827Z,18.72
2018-05-06T08:44:16.727Z,18.73
2018-05-06T08:45:16.652Z,18.72
2018-05-06T08:46:17.158Z,18.74
2018-05-06T08:47:16.670Z,18.72
2018-05-06T08:48:16.692Z,18.73
2018-05-06T08:49:16.744Z,18.77
2018-05-06T08:50:16.765Z,18.76
2018-05-06T08:51:16.699Z,18.76
2018-05-06T08:52:16.641Z,18.76
2018-05-06T08:53:16.643Z,18.76
2018-05-06T08:54:16.631Z,18.74
2018-05-06T08:55:16.670Z,18.8
2018-05-06T08:56:21.900Z,18.78
2018-05-06T08:57:17.612Z,18.78
2018-05-06T08:58:16.680Z,18.79
2018-05-06T08:59:16.652Z,18.82
2018-05-06T09:00:16.633Z,18.82
2018-05-06T09:01:16.694Z,18.82
2018-05-06T09:02:16.479Z,18.81
2018-05-06T09:03:16.550Z,18.83
2018-05-06T09:04:16.599Z,18.84
2018-05-06T09:05:16.573Z,18.82
2018-05-06T09:06:16.654Z,18.82
2018-05-06T09:07:16.674Z,18.82
2018-05-06T09:08:16.694Z,18.84
2018-05-06T09:09:16.442Z,18.85
2018-05-06T09:10:16.689Z,18.83
2018-05-06T09:11:16.463Z,18.84
2018-05-06T09:12:16.673Z,18.85
2018-05-06T09:13:16.580Z,18.85
2018-05-06T09:14:16.587Z,18.84
2018-05-06T09:15:16.701Z,18.84
2018-05-06T09:16:16.578Z,18.88
2018-05-06T09:17:16.797Z,18.85
2018-05-06T09:18:16.588Z,18.84
2018-05-06T09:19:16.515Z,18.88
2018-05-06T09:20:16.657Z,18.86
2018-05-06T09:21:16.657Z,18.84
2018-05-06T09:22:16.458Z,18.86
2018-05-06T09:23:16.733Z,18.87
2018-05-06T09:24:16.582Z,18.88
2018-05-06T09:25:16.968Z,18.94
2018-05-06T09:26:16.537Z,18.89
2018-05-06T09:27:16.514Z,18.87
2018-05-06T09:28:16.712Z,18.88
2018-05-06T09:29:16.601Z,18.86
2018-05-06T09:30:16.570Z,18.85
2018-05-06T09:31:16.595Z,18.86
2018-05-06T09:32:17.008Z,18.85
2018-05-06T09:33:16.714Z,18.84
2018-05-06T09:34:16.389Z,18.84
2018-05-06T09:35:16.735Z,18.83
2018-05-06T09:36:16.606Z,18.81
2018-05-06T09:37:16.689Z,18.84
2018-05-06T09:38:16.606Z,18.83
2018-05-06T09:39:16.583Z,18.78
2018-05-06T09:40:16.448Z,18.8
2018-05-06T09:41:16.802Z,18.81
2018-05-06T09:42:16.712Z,18.8
2018-05-06T09:43:16.606Z,18.81
2018-05-06T09:44:16.746Z,18.79
2018-05-06T09:45:16.618Z,18.79
2018-05-06T09:46:16.470Z,18.82
2018-05-06T09:47:16.692Z,18.8
2018-05-06T09:48:16.586Z,18.79
2018-05-06T09:49:16.561Z,18.82
2018-05-06T09:50:16.484Z,18.82
2018-05-06T09:51:16.589Z,18.83
2018-05-06T09:52:16.750Z,18.85
2018-05-06T09:53:16.745Z,18.84
2018-05-06T09:54:16.661Z,18.86
2018-05-06T09:55:16.479Z,18.86
2018-05-06T09:56:16.588Z,18.87
2018-05-06T09:57:16.476Z,18.88
2018-05-06T09:58:16.434Z,18.88
2018-05-06T09:59:16.568Z,18.91
2018-05-06T10:00:16.489Z,18.87
2018-05-06T10:01:16.716Z,18.88
2018-05-06T10:02:16.615Z,18.91
2018-05-06T10:03:16.641Z,18.91
2018-05-06T10:04:16.590Z,18.92
2018-05-06T10:05:16.738Z,18.88
2018-05-06T10:06:16.544Z,18.89
2018-05-06T10:07:16.607Z,18.93
2018-05-06T10:08:17.161Z,18.92
2018-05-06T10:09:16.644Z,18.88
2018-05-06T10:10:16.582Z,18.92
2018-05-06T10:11:16.800Z,18.93
2018-05-06T10:12:16.587Z,18.92
2018-05-06T10:13:16.796Z,18.93
2018-05-06T10:14:16.783Z,18.94
2018-05-06T10:15:16.641Z,18.92
2018-05-06T10:16:16.477Z,18.94
2018-05-06T10:17:16.696Z,18.94
2018-05-06T10:18:16.621Z,18.92
2018-05-06T10:19:16.484Z,18.97
2018-05-06T10:20:16.725Z,18.95
2018-05-06T10:21:16.598Z,18.98
2018-05-06T10:22:16.850Z,18.98
2018-05-06T10:23:16.697Z,18.98
2018-05-06T10:24:16.521Z,18.98
2018-05-06T10:25:16.574Z,18.98
2018-05-06T10:26:17.050Z,18.99
2018-05-06T10:27:16.684Z,19.01
2018-05-06T10:28:16.561Z,19.01
2018-05-06T10:29:16.726Z,19.03
2018-05-06T10:30:16.538Z,19.01
2018-05-06T10:31:16.559Z,19.02
2018-05-06T10:32:16.511Z,19
2018-05-06T10:33:16.521Z,19.01
2018-05-06T10:34:16.617Z,19.03
2018-05-06T10:35:16.694Z,19
2018-05-06T10:36:16.658Z,18.99
2018-05-06T10:37:16.513Z,19.01
2018-05-06T10:38:16.819Z,18.99
2018-05-06T10:39:16.522Z,19.01
2018-05-06T10:40:16.544Z,19.03
2018-05-06T10:41:16.818Z,19.01
2018-05-06T10:42:16.761Z,19.05
2018-05-06T10:43:16.856Z,19.05
2018-05-06T10:44:17.261Z,19.05
2018-05-06T10:45:16.754Z,19.06
2018-05-06T10:46:16.472Z,19.08
2018-05-06T10:47:16.674Z,19.09
2018-05-06T10:48:16.661Z,19.09
2018-05-06T10:49:17.450Z,19.09
2018-05-06T10:50:20.195Z,19.1
2018-05-06T10:51:16.607Z,19.1
2018-05-06T10:52:16.418Z,19.13
2018-05-06T10:53:16.647Z,19.13
2018-05-06T10:54:16.789Z,19.12
2018-05-06T10:55:16.566Z,19.14
2018-05-06T10:56:16.728Z,19.12
2018-05-06T10:57:16.571Z,19.11
2018-05-06T10:58:16.663Z,19.13
2018-05-06T10:59:16.657Z,19.12
2018-05-06T11:00:16.716Z,19.1
2018-05-06T11:01:16.433Z,19.09
2018-05-06T11:02:16.780Z,19.11
2018-05-06T11:03:16.657Z,19.11
2018-05-06T11:04:16.729Z,19.13
2018-05-06T11:05:16.806Z,19.12
2018-05-06T11:06:16.554Z,19.11
2018-05-06T11:07:16.575Z,19.12
2018-05-06T11:08:16.701Z,19.12
2018-05-06T11:09:16.547Z,19.13
2018-05-06T11:10:16.963Z,19.13
2018-05-06T11:11:16.511Z,19.13
2018-05-06T11:12:16.545Z,19.13
2018-05-06T11:13:16.683Z,19.13
2018-05-06T11:14:16.584Z,19.12
2018-05-06T11:15:16.625Z,19.11
2018-05-06T11:16:16.429Z,19.09
2018-05-06T11:17:16.598Z,19.09
2018-05-06T11:18:16.632Z,19.09
2018-05-06T11:19:16.584Z,19.07
2018-05-06T11:20:18.609Z,19.06
2018-05-06T11:21:16.439Z,19.06
2018-05-06T11:22:16.443Z,19.05
2018-05-06T11:23:16.782Z,19.03
2018-05-06T11:24:16.619Z,19.03
2018-05-06T11:25:16.449Z,19.05
2018-05-06T11:26:16.877Z,19
2018-05-06T11:27:16.572Z,19.01
2018-05-06T11:28:16.443Z,19.01
2018-05-06T11:29:16.672Z,19
2018-05-06T11:30:16.445Z,18.99
2018-05-06T11:31:16.368Z,18.99
2018-05-06T11:32:16.550Z,18.99
2018-05-06T11:33:16.580Z,19
2018-05-06T11:34:16.596Z,19.01
2018-05-06T11:35:16.541Z,19.01
2018-05-06T11:36:16.532Z,18.97
2018-05-06T11:37:16.426Z,18.99
2018-05-06T11:38:16.560Z,18.98
2018-05-06T11:39:16.471Z,18.98
2018-05-06T11:40:16.650Z,18.97
2018-05-06T11:41:16.604Z,18.95
2018-05-06T11:42:16.481Z,18.95
2018-05-06T11:43:16.724Z,18.98
2018-05-06T11:44:16.625Z,18.96
2018-05-06T11:45:16.667Z,18.95
2018-05-06T11:46:16.436Z,18.98
2018-05-06T11:47:16.513Z,18.93
2018-05-06T11:48:16.435Z,18.94
2018-05-06T11:49:16.578Z,18.95
2018-05-06T11:50:16.574Z,18.97
2018-05-06T11:51:16.501Z,18.94
2018-05-06T11:52:16.660Z,18.96
2018-05-06T11:53:16.486Z,18.94
2018-05-06T11:54:16.652Z,18.94
2018-05-06T11:55:16.428Z,18.94
2018-05-06T11:56:16.933Z,18.94
2018-05-06T11:57:16.484Z,18.91
2018-05-06T11:58:17.221Z,18.92
2018-05-06T11:59:16.496Z,18.93
2018-05-06T12:00:16.564Z,18.91
2018-05-06T12:01:16.565Z,18.94
2018-05-06T12:02:17.145Z,18.89
2018-05-06T12:03:16.609Z,18.88
2018-05-06T12:04:16.383Z,18.93
2018-05-06T12:05:16.613Z,18.88
2018-05-06T12:06:16.524Z,18.89
2018-05-06T12:07:16.598Z,18.92
2018-05-06T12:08:16.544Z,18.88
2018-05-06T12:09:16.507Z,18.87
2018-05-06T12:10:16.581Z,18.88
2018-05-06T12:11:16.733Z,18.87
2018-05-06T12:12:16.516Z,18.85
2018-05-06T12:13:16.603Z,18.91
2018-05-06T12:14:16.573Z,18.88
2018-05-06T12:15:16.559Z,18.87
2018-05-06T12:16:16.410Z,18.89
2018-05-06T12:17:16.473Z,18.87
2018-05-06T12:18:16.480Z,18.84
2018-05-06T12:19:16.567Z,18.87
2018-05-06T12:20:16.627Z,18.85
2018-05-06T12:21:16.507Z,18.85
2018-05-06T12:22:16.423Z,18.86
2018-05-06T12:23:16.530Z,18.86
2018-05-06T12:24:16.648Z,18.83
2018-05-06T12:25:16.507Z,18.86
2018-05-06T12:26:16.431Z,18.83
2018-05-06T12:27:16.594Z,18.83
2018-05-06T12:28:16.444Z,18.87
2018-05-06T12:29:16.417Z,18.85
2018-05-06T12:30:16.563Z,18.84
2018-05-06T12:31:16.455Z,18.84
2018-05-06T12:32:16.422Z,18.82
2018-05-06T12:33:16.448Z,18.82
2018-05-06T12:34:16.468Z,18.85
2018-05-06T12:35:16.497Z,18.83
2018-05-06T12:36:16.445Z,18.82
2018-05-06T12:37:16.613Z,18.83
2018-05-06T12:38:16.412Z,18.83
2018-05-06T12:39:16.576Z,18.8
2018-05-06T12:40:16.404Z,18.84
2018-05-06T12:41:16.408Z,18.81
2018-05-06T12:42:16.638Z,18.8
2018-05-06T12:43:17.328Z,18.84
2018-05-06T12:44:16.559Z,18.82
2018-05-06T12:45:16.657Z,18.79
2018-05-06T12:46:16.415Z,18.82
2018-05-06T12:47:16.474Z,18.8
2018-05-06T12:48:16.471Z,18.81
2018-05-06T12:49:16.653Z,18.82
2018-05-06T12:50:16.699Z,18.8
2018-05-06T12:51:16.505Z,18.79
2018-05-06T12:52:16.498Z,18.82
2018-05-06T12:53:16.705Z,18.81
2018-05-06T12:54:16.863Z,18.78
2018-05-06T12:55:16.865Z,18.82